Manipolatore dell'Oscurità
| Nome | Manipolatore dell'Oscurità |
|---|---|
| Predefinito | Duskwielder |
| Tipo | Creatura — berserker elfo |
| Descrizione | Vanto — |
| Gusto | "Basterà la mia ombra a trucidarti." |
| Artista | Daarken |
| Espansione | Kaldheim #91 |
| Carta da parati | |
| Immagine |
Di Manipolatore dell'Oscurità
Manipolatore dell'Oscurità, Creatura — berserker elfo, progettato da Daarken rilasciato per la prima volta gennaio 2021 in redazione Kaldheim. Attualmente viene venduto al prezzo più basso di € 0,01.
Questa carta Duskwielder potrebbe essere vantaggiosa in un mazzo nero aggro o midrange in Magic: The Gathering, poiché fornisce un modo costante per prosciugare la vita del tuo avversario mentre guadagni vita tu stesso. Tuttavia, ci potrebbero essere carte potenzialmente migliori per questo effetto, come Vampire Nighthawk, che offre una capacità simile con volo e tocco mortale per un costo leggermente più alto. Se Duskwielder dovrebbe essere giocato dipenderebbe dalla strategia specifica e dalla sinergia del mazzo in cui è incluso, ma potrebbe essere una scelta solida per i mazzi che cercano di applicare pressione e ottenere un vantaggio incrementale di vita.
Dove comprare
![]() | TCG Player | 16 uni.
| € 0,01 | visita il negozio |
![]() | Card Kingdom | 40 uni.
| € 0,30 | visita il negozio |
![]() | Ebay.com | visita il negozio | ||
![]() | Cardkingdom | visita il negozio | ||
![]() | Printing proxies | $ 0.75 | visita il negozio |
*Questo sito contiene link di affiliazione per i quali potremmo ricevere un compenso
Gruppo
avviso di prezzo ?
Avvisami quando arriva il prezzo
Storico dell'andamento dei prezzi

Storico dei prezzi
| Data | Prezzo minimo | Prezzo medio | Decks |
|---|---|---|---|
| 2024-09-07 | 0.02 EUR | 0.17 EUR | 0 |
| 2024-09-09 | 0.02 EUR | 0.17 EUR | 0 |
| 2024-09-16 | 0.03 EUR | 0.18 EUR | 1 |
| 2024-09-23 | 0.02 EUR | 0.17 EUR | 0 |
| 2024-09-30 | 0.03 EUR | 0.17 EUR | 0 |
| 2024-10-07 | 0.03 EUR | 0.18 EUR | 0 |
| 2024-10-14 | 0.03 EUR | 0.18 EUR | 0 |
| 2024-10-21 | 0.01 EUR | 0.17 EUR | 0 |
| 2024-10-28 | 0.01 EUR | 0.17 EUR | 0 |
| 2024-11-06 | 0.01 EUR | 0.17 EUR | 0 |
| 2024-11-11 | 0.01 EUR | 0.17 EUR | 0 |
| 2024-11-18 | 0.01 EUR | 0.17 EUR | 0 |
| 2024-11-25 | 0.01 EUR | 0.17 EUR | 0 |
| 2024-12-02 | 0.01 EUR | 0.18 EUR | 0 |
| 2024-12-09 | 0.01 EUR | 0.18 EUR | 0 |
| 2024-12-19 | 0.01 EUR | 0.18 EUR | 0 |
| 2024-12-23 | 0.01 EUR | 0.18 EUR | 0 |
| 2024-12-30 | 0.01 EUR | 0.18 EUR | 0 |
| 2025-01-01 | 0.01 EUR | 0.18 EUR | 1 |
| 2025-01-06 | 0.01 EUR | 0.18 EUR | 1 |
| 2025-01-13 | 0.01 EUR | 0.18 EUR | 0 |
| 2025-01-20 | 0.01 EUR | 0.18 EUR | 0 |
| 2025-01-27 | 0.01 EUR | 0.18 EUR | 0 |
| 2025-02-03 | 0.01 EUR | 0.18 EUR | 0 |
| 2025-02-10 | 0.01 EUR | 0.18 EUR | 2 |
| 2025-02-18 | 0.01 EUR | 0.17 EUR | 0 |
| 2025-04-27 | 0.01 EUR | 0.17 EUR | 0 |
| 2025-04-28 | 0.01 EUR | 0.17 EUR | 0 |
| 2025-05-06 | 0.01 EUR | 0.17 EUR | 0 |
| 2025-05-12 | 0.01 EUR | 0.17 EUR | 0 |
| 2025-05-19 | 0.01 EUR | 0.17 EUR | 0 |
| 2025-05-28 | 0.02 EUR | 0.18 EUR | 0 |
| 2025-06-03 | 0.02 EUR | 0.18 EUR | 0 |
| 2025-06-10 | 0.02 EUR | 0.17 EUR | 1 |
| 2025-06-17 | 0.01 EUR | 0.17 EUR | 0 |
| 2025-06-23 | 0.01 EUR | 0.17 EUR | 1 |
| 2025-07-01 | 0.01 EUR | 0.17 EUR | 0 |
| 2025-07-08 | 0.01 EUR | 0.17 EUR | 0 |
| 2025-07-15 | 0.01 EUR | 0.17 EUR | 0 |
| 2025-07-22 | 0.01 EUR | 0.17 EUR | 0 |
| 2025-07-29 | 0.01 EUR | 0.17 EUR | 0 |
| 2025-08-05 | 0.01 EUR | 0.17 EUR | 0 |
| 2025-08-12 | 0.01 EUR | 0.16 EUR | 0 |
| 2025-08-18 | 0.01 EUR | 0.16 EUR | 0 |
| 2025-08-25 | 0.01 EUR | 0.16 EUR | 0 |
| 2025-09-02 | 0.01 EUR | 0.16 EUR | 0 |
| 2025-09-09 | 0.01 EUR | 0.16 EUR | 0 |
| 2025-09-15 | 0.01 EUR | 0.16 EUR | 0 |
| 2025-09-23 | 0.01 EUR | 0.16 EUR | 0 |
| 2025-09-29 | 0.31 EUR | 0.31 EUR | 1 |
| 2025-10-06 | 0.31 EUR | 0.31 EUR | 0 |
| 2025-10-13 | 0.32 EUR | 0.32 EUR | 0 |
| 2025-10-20 | 0.32 EUR | 0.32 EUR | 0 |
| 2025-10-27 | 0.32 EUR | 0.32 EUR | 0 |
| 2025-11-03 | 0.32 EUR | 0.32 EUR | 0 |
| 2025-11-10 | 0.31 EUR | 0.31 EUR | 0 |
| 2025-11-18 | 0.31 EUR | 0.31 EUR | 2 |
| 2025-11-24 | 0.32 EUR | 0.32 EUR | 0 |
| 2025-12-03 | 0.31 EUR | 0.31 EUR | 0 |
| 2025-12-08 | 0.32 EUR | 0.32 EUR | 0 |
| 2025-12-15 | 0.32 EUR | 0.32 EUR | 0 |
| 2025-12-22 | 0.33 EUR | 0.33 EUR | 0 |
| 2025-12-29 | 0.33 EUR | 0.33 EUR | 0 |
| 2026-01-01 | 0.32 EUR | 0.32 EUR | 0 |
| 2026-01-05 | 0.32 EUR | 0.32 EUR | 0 |
| 2026-01-13 | 0.32 EUR | 0.32 EUR | 0 |
| 2026-01-20 | 0.31 EUR | 0.31 EUR | 0 |
| 2026-01-26 | 0.31 EUR | 0.31 EUR | 0 |
| 2026-02-02 | 0.31 EUR | 0.31 EUR | 0 |
| 2026-02-09 | 0.31 EUR | 0.31 EUR | 0 |
| 2026-02-16 | 0.31 EUR | 0.31 EUR | 0 |
| 2026-02-23 | 0.31 EUR | 0.31 EUR | 0 |
| 2026-03-02 | 0.30 EUR | 0.30 EUR | 0 |
| 2026-03-10 | 0.31 EUR | 0.31 EUR | 0 |
| 2026-03-16 | 0.31 EUR | 0.31 EUR | 0 |
| 2026-04-02 | 0.31 EUR | 0.31 EUR | 0 |
| 2026-04-07 | 0.30 EUR | 0.30 EUR | 0 |
| 2026-04-14 | 0.29 EUR | 0.29 EUR | 0 |
| 2026-04-23 | 0.29 EUR | 0.29 EUR | 0 |
| 2026-04-30 | 0.29 EUR | 0.29 EUR | 0 |
| 2026-05-05 | 0.29 EUR | 0.29 EUR | 0 |
| 2026-05-14 | 0.29 EUR | 0.29 EUR | 0 |
| 2026-05-20 | 0.30 EUR | 0.30 EUR | 0 |
| 2026-05-25 | 0.30 EUR | 0.30 EUR | 0 |
| 2026-06-01 | 0.30 EUR | 0.30 EUR | 0 |
| 2026-06-08 | 0.30 EUR | 0.30 EUR | 0 |
| 2026-06-15 | 0.30 EUR | 0.30 EUR | 0 |
| 2026-06-23 | 0.30 EUR | 0.30 EUR | 0 |
| 2026-06-29 | 0.30 EUR | 0.30 EUR | 0 |
| 2026-07-06 | 0.18 EUR | 0.24 EUR | 0 |
| 2026-07-13 | 0.01 EUR | 0.13 EUR | 0 |
| 2026-07-20 | 0.01 EUR | 0.13 EUR | 0 |
| 2026-07-27 | 0.01 EUR | 0.15 EUR | 0 |
| 2026-08-03 | 0.01 EUR | 0.15 EUR | 0 |
| 2026-08-10 | 0.01 EUR | 0.16 EUR | 0 |
| 2026-08-17 | 0.01 EUR | 0.16 EUR | 0 |
| 2026-08-24 | 0.01 EUR | 0.16 EUR | 0 |
| 2026-09-01 | 0.01 EUR | 0.16 EUR | 0 |
Domande frequenti su Manipolatore dell'Oscurità
Che tipo di carta è Manipolatore dell'Oscurità?
Manipolatore dell'Oscurità è Creatura — berserker elfo carta inserita Magic: the Gathering MTG.
Qual è l'effetto della carta Manipolatore dell'Oscurità?
Vanto — {1}: Un avversario bersaglio perde 1 punto vita e tu guadagni 1 punto vita. (Attiva questa abilità solo se questa creatura ha attaccato in questo turno e solo una volta per turno.)
Qual è il prezzo della carta Manipolatore dell'Oscurità?
Manipolatore dell'Oscurità attualmente inizia alle € 0,01. Visualizza i prezzi in tempo reale di più venditori nella sezione Dove acquistare sopra.
Qual è il set originale della carta Manipolatore dell'Oscurità?
Manipolatore dell'Oscurità è stato rilasciato per la prima volta nel set Kaldheim, illustrato da Daarken.
Qual è la legalità della carta Manipolatore dell'Oscurità?
La legalità dipende dal formato del torneo: Manipolatore dell'Oscurità può essere legale in alcuni formati e vietato o limitato in altri. Consulta la ripartizione completa per formato nella sezione Legalità sopra.
Quali carte sono simili a Manipolatore dell'Oscurità?
Carte simili a Manipolatore dell'Oscurità includere Campione della Fauce d'Oro. Consulta l'elenco completo nella sezione Carte simili sopra.






Reazioni
0
0 Commenti
Diventa il primo a commentare